| time (UTC) | temp C | wind direction | speed KPH | gust KPH | rain 1hr cm | rain 24hr cm | rain mn cm | humidity % | barometer mb |
| 20260506162704 | 18 | 203 | 1.6 | 4.8 | 0.00 | 0.00 | 0.00 | 76 | 1005.2 |
| 20260506161804 | 18 | 187 | 3.2 | 6.4 | 0.00 | 0.00 | 0.00 | 76 | 1005.2 |
| 20260506160904 | 18 | 177 | 3.2 | 4.8 | 0.00 | 0.00 | 0.00 | 76 | 1005.2 |
| 20260506160004 | 19 | 181 | 3.2 | 6.4 | 0.00 | 0.00 | 0.00 | 77 | 1005.2 |
| 20260506155404 | 19 | 182 | 3.2 | 6.4 | 0.00 | 0.00 | 0.00 | 77 | 1005.6 |
| 20260506154504 | 19 | 180 | 3.2 | 6.4 | 0.00 | 0.00 | 0.00 | 76 | 1005.6 |
| 20260506153604 | 20 | 172 | 1.6 | 6.4 | 0.00 | 0.00 | 0.00 | 77 | 1005.6 |
| 20260506152704 | 20 | 192 | 3.2 | 9.7 | 0.00 | 0.00 | 0.00 | 77 | 1005.9 |
| 20260506151804 | 19 | 194 | 3.2 | 9.7 | 0.00 | 0.00 | 0.00 | 78 | 1005.6 |
| 20260506150904 | 19 | 199 | 3.2 | 6.4 | 0.00 | 0.00 | 0.00 | 78 | 1005.2 |
| 20260506150004 | 19 | 179 | 3.2 | 9.7 | 0.00 | 0.00 | 0.00 | 78 | 1005.6 |
| 20260506145404 | 19 | 177 | 3.2 | 9.7 | 0.00 | 0.00 | 0.00 | 78 | 1005.6 |
| 20260506144504 | 19 | 181 | 3.2 | 9.7 | 0.00 | 0.00 | 0.00 | 79 | 1005.6 |
| 20260506143604 | 19 | 177 | 3.2 | 6.4 | 0.00 | 0.00 | 0.00 | 79 | 1005.9 |
| 20260506142704 | 19 | 191 | 3.2 | 9.7 | 0.00 | 0.00 | 0.00 | 80 | 1005.9 |
| 20260506141804 | 18 | 198 | 3.2 | 9.7 | 0.00 | 0.00 | 0.00 | 80 | 1005.9 |
| 20260506140904 | 18 | 193 | 3.2 | 9.7 | 0.00 | 0.00 | 0.00 | 80 | 1005.9 |
| 20260506140004 | 18 | 187 | 3.2 | 9.7 | 0.00 | 0.00 | 0.00 | 81 | 1005.9 |
| 20260506135404 | 18 | 190 | 3.2 | 9.7 | 0.00 | 0.00 | 0.00 | 81 | 1005.6 |
| 20260506134504 | 18 | 188 | 3.2 | 9.7 | 0.00 | 0.00 | 0.00 | 81 | 1005.9 |
| 20260506133604 | 18 | 188 | 3.2 | 9.7 | 0.00 | 0.00 | 0.00 | 82 | 1005.9 |
| 20260506132704 | 18 | 175 | 3.2 | 6.4 | 0.00 | 0.00 | 0.00 | 83 | 1005.9 |
| 20260506131804 | 18 | 174 | 3.2 | 4.8 | 0.00 | 0.00 | 0.00 | 83 | 1005.9 |
| 20260506130904 | 17 | 184 | 3.2 | 6.4 | 0.00 | 0.00 | 0.00 | 83 | 1005.6 |
| 20260506130005 | 17 | 185 | 1.6 | 4.8 | 0.00 | 0.00 | 0.00 | 84 | 1005.9 |
| 20260506125404 | 17 | 209 | 1.6 | 4.8 | 0.00 | 0.00 | 0.00 | 84 | 1005.9 |
| 20260506124504 | 16 | 208 | 1.6 | 4.8 | 0.00 | 0.00 | 0.00 | 84 | 1005.6 |
| 20260506123604 | 16 | 213 | 1.6 | 6.4 | 0.00 | 0.00 | 0.00 | 84 | 1005.9 |
| 20260506122704 | 16 | 209 | 1.6 | 11.3 | 0.00 | 0.00 | 0.00 | 84 | 1006.3 |
| 20260506121804 | 16 | 194 | 1.6 | 11.3 | 0.00 | 0.00 | 0.00 | 84 | 1006.6 |
| 20260506120904 | 16 | 192 | 3.2 | 6.4 | 0.00 | 0.00 | 0.00 | 85 | 1006.3 |
| 20260506120004 | 16 | 190 | 1.6 | 4.8 | 0.00 | 0.00 | 0.00 | 85 | 1006.3 |
| 20260506115404 | 16 | 190 | 1.6 | 4.8 | 0.00 | 0.00 | 0.00 | 85 | 1006.3 |
| 20260506114504 | 15 | 190 | 1.6 | 4.8 | 0.00 | 0.00 | 0.00 | 85 | 1005.9 |
| 20260506113604 | 15 | 189 | 1.6 | 3.2 | 0.00 | 0.00 | 0.00 | 85 | 1006.3 |
| 20260506112704 | 15 | 189 | 1.6 | 3.2 | 0.00 | 0.00 | 0.00 | 85 | 1006.3 |
| 20260506111804 | 15 | 188 | 1.6 | 4.8 | 0.00 | 0.00 | 0.00 | 85 | 1006.3 |
| 20260506110904 | 15 | 188 | 1.6 | 4.8 | 0.00 | 0.00 | 0.00 | 85 | 1006.3 |
| 20260506110004 | 15 | 188 | 1.6 | 4.8 | 0.00 | 0.00 | 0.00 | 85 | 1006.3 |
| 20260506105404 | 14 | 187 | 0.0 | 3.2 | 0.00 | 0.00 | 0.00 | 85 | 1006.6 |
| 20260506104504 | 13 | 187 | 0.0 | 3.2 | 0.00 | 0.00 | 0.00 | 85 | 1006.3 |
| 20260506103604 | 13 | 0 | 0.0 | 0.0 | 0.00 | 0.00 | 0.00 | 85 | 1006.6 |
| 20260506102704 | 13 | 187 | 0.0 | 3.2 | 0.00 | 0.00 | 0.00 | 85 | 1006.3 |
| 20260506101804 | 13 | 0 | 0.0 | 0.0 | 0.00 | 0.00 | 0.00 | 84 | 1006.3 |
| 20260506100904 | 13 | 187 | 0.0 | 1.6 | 0.00 | 0.00 | 0.00 | 84 | 1006.3 |
| 20260506100004 | 12 | 187 | 0.0 | 3.2 | 0.00 | 0.00 | 0.00 | 84 | 1006.3 |
| 20260506095404 | 12 | 187 | 0.0 | 1.6 | 0.00 | 0.00 | 0.00 | 84 | 1006.3 |
| 20260506094504 | 12 | 0 | 0.0 | 0.0 | 0.00 | 0.00 | 0.00 | 83 | 1005.9 |
| 20260506093604 | 12 | 0 | 0.0 | 0.0 | 0.00 | 0.00 | 0.00 | 83 | 1006.3 |
| 20260506092704 | 12 | 0 | 0.0 | 0.0 | 0.00 | 0.00 | 0.00 | 83 | 1005.9 |
| 20260506091804 | 12 | 0 | 0.0 | 0.0 | 0.00 | 0.00 | 0.00 | 83 | 1005.9 |
| 20260506090904 | 12 | 0 | 0.0 | 0.0 | 0.00 | 0.00 | 0.00 | 82 | 1006.3 |
| 20260506090004 | 13 | 0 | 0.0 | 0.0 | 0.00 | 0.00 | 0.00 | 82 | 1006.3 |
| 20260506085404 | 12 | 0 | 0.0 | 0.0 | 0.00 | 0.00 | 0.00 | 82 | 1006.3 |
| 20260506084504 | 13 | 0 | 0.0 | 0.0 | 0.00 | 0.00 | 0.00 | 81 | 1006.3 |
| 20260506083604 | 13 | 187 | 0.0 | 3.2 | 0.00 | 0.00 | 0.00 | 81 | 1006.6 |
| 20260506082704 | 13 | 187 | 1.6 | 3.2 | 0.00 | 0.00 | 0.00 | 81 | 1006.6 |
| 20260506081804 | 13 | 187 | 0.0 | 3.2 | 0.00 | 0.00 | 0.00 | 81 | 1006.6 |
| 20260506080904 | 13 | 0 | 0.0 | 0.0 | 0.00 | 0.00 | 0.00 | 80 | 1006.6 |
| 20260506072704 | 13 | 187 | 1.6 | 3.2 | 0.00 | 0.00 | 0.00 | 79 | 1006.6 |
| 20260506071804 | 13 | 187 | 1.6 | 3.2 | 0.00 | 0.00 | 0.00 | 78 | 1006.6 |
| 20260506070904 | 13 | 0 | 0.0 | 0.0 | 0.00 | 0.00 | 0.00 | 78 | 1006.6 |
| 20260506061804 | 14 | 187 | 0.0 | 1.6 | 0.00 | 0.00 | 0.00 | 76 | 1006.3 |
| 20260506060904 | 14 | 0 | 0.0 | 0.0 | 0.00 | 0.00 | 0.00 | 75 | 1006.3 |
| 20260506050904 | 15 | 187 | 0.0 | 1.6 | 0.00 | 0.00 | 0.00 | 73 | 1007.3 |
| 20260506044504 | 15 | 0 | 0.0 | 0.0 | 0.00 | 0.00 | 0.00 | 72 | 1007.0 |
| 20260506043604 | 15 | 187 | 0.0 | 1.6 | 0.00 | 0.00 | 0.00 | 72 | 1007.0 |
| 20260506042704 | 15 | 187 | 0.0 | 1.6 | 0.00 | 0.00 | 0.00 | 72 | 1007.0 |
| 20260506041804 | 15 | 187 | 0.0 | 3.2 | 0.00 | 0.00 | 0.00 | 71 | 1007.0 |
| 20260506040904 | 15 | 187 | 1.6 | 3.2 | 0.00 | 0.00 | 0.00 | 71 | 1007.0 |
| 20260506040004 | 15 | 187 | 1.6 | 3.2 | 0.00 | 0.00 | 0.00 | 71 | 1007.0 |
| 20260506035404 | 16 | 187 | 1.6 | 3.2 | 0.00 | 0.00 | 0.00 | 71 | 1006.6 |
| 20260506034504 | 16 | 187 | 1.6 | 4.8 | 0.00 | 0.00 | 0.00 | 70 | 1007.0 |
| 20260506033604 | 16 | 187 | 1.6 | 3.2 | 0.00 | 0.00 | 0.00 | 70 | 1006.6 |
| 20260506032704 | 16 | 187 | 1.6 | 3.2 | 0.00 | 0.00 | 0.00 | 69 | 1006.6 |
| 20260506031804 | 16 | 187 | 0.0 | 3.2 | 0.00 | 0.00 | 0.00 | 69 | 1007.0 |
| 20260506030904 | 16 | 187 | 1.6 | 3.2 | 0.00 | 0.00 | 0.00 | 69 | 1007.0 |
| 20260506030004 | 16 | 187 | 0.0 | 3.2 | 0.00 | 0.00 | 0.00 | 68 | 1007.0 |
| 20260506025404 | 16 | 0 | 0.0 | 0.0 | 0.00 | 0.00 | 0.00 | 68 | 1007.0 |
| 20260506024504 | 16 | 0 | 0.0 | 0.0 | 0.00 | 0.00 | 0.00 | 67 | 1006.6 |
| 20260506023604 | 16 | 187 | 0.0 | 3.2 | 0.00 | 0.00 | 0.00 | 67 | 1007.0 |
| 20260506022704 | 16 | 187 | 1.6 | 4.8 | 0.00 | 0.00 | 0.00 | 67 | 1007.0 |
| 20260506021804 | 16 | 187 | 1.6 | 3.2 | 0.00 | 0.00 | 0.00 | 66 | 1007.0 |
| 20260506020904 | 17 | 187 | 1.6 | 3.2 | 0.00 | 0.00 | 0.00 | 66 | 1007.0 |
| 20260506020004 | 17 | 187 | 0.0 | 3.2 | 0.00 | 0.00 | 0.00 | 66 | 1006.6 |
| 20260506015404 | 17 | 187 | 0.0 | 3.2 | 0.00 | 0.00 | 0.00 | 65 | 1006.6 |
| 20260506014504 | 17 | 187 | 1.6 | 3.2 | 0.00 | 0.00 | 0.00 | 65 | 1006.6 |
| 20260506013604 | 17 | 187 | 1.6 | 3.2 | 0.00 | 0.00 | 0.00 | 65 | 1006.3 |
| 20260506012704 | 17 | 187 | 0.0 | 3.2 | 0.00 | 0.00 | 0.00 | 64 | 1006.3 |
| 20260506011804 | 17 | 187 | 0.0 | 3.2 | 0.00 | 0.00 | 0.00 | 64 | 1006.3 |
| 20260506010904 | 17 | 187 | 1.6 | 3.2 | 0.00 | 0.00 | 0.00 | 63 | 1006.3 |
| 20260506010004 | 17 | 187 | 0.0 | 3.2 | 0.00 | 0.00 | 0.00 | 63 | 1005.9 |
| 20260506005404 | 18 | 187 | 0.0 | 3.2 | 0.00 | 0.00 | 0.00 | 62 | 1005.9 |
| 20260506004504 | 18 | 187 | 0.0 | 3.2 | 0.00 | 0.00 | 0.00 | 62 | 1005.9 |
| 20260506003604 | 18 | 187 | 1.6 | 4.8 | 0.00 | 0.00 | 0.00 | 62 | 1005.9 |
| 20260506002704 | 18 | 187 | 1.6 | 3.2 | 0.00 | 0.00 | 0.00 | 61 | 1005.9 |
| 20260506001804 | 18 | 186 | 1.6 | 4.8 | 0.00 | 0.00 | 0.00 | 61 | 1005.2 |
| 20260506000904 | 18 | 185 | 1.6 | 4.8 | 0.00 | 0.00 | 0.00 | 60 | 1004.9 |
| 20260506000004 | 19 | 203 | 1.6 | 6.4 | 0.00 | 0.00 | 0.00 | 60 | 1004.9 |
| 20260505235404 | 19 | 224 | 1.6 | 6.4 | 0.00 | 0.00 | 0.00 | 59 | 1005.2 |
| 20260505234504 | 20 | 188 | 1.6 | 4.8 | 0.00 | 0.00 | 0.00 | 59 | 1004.9 |
| 20260505233604 | 20 | 182 | 3.2 | 4.8 | 0.00 | 0.00 | 0.00 | 58 | 1005.2 |
| 20260505232704 | 20 | 187 | 1.6 | 4.8 | 0.00 | 0.00 | 0.00 | 58 | 1004.9 |
| 20260505231804 | 20 | 196 | 3.2 | 9.7 | 0.00 | 0.00 | 0.00 | 57 | 1004.9 |
| 20260505230904 | 20 | 194 | 3.2 | 9.7 | 0.00 | 0.00 | 0.00 | 57 | 1004.9 |
| 20260505230004 | 21 | 189 | 1.6 | 9.7 | 0.00 | 0.00 | 0.00 | 56 | 1004.6 |
| 20260505225404 | 21 | 165 | 3.2 | 9.7 | 0.00 | 0.00 | 0.00 | 56 | 1004.6 |
| 20260505224504 | 21 | 182 | 4.8 | 11.3 | 0.00 | 0.00 | 0.00 | 56 | 1004.2 |
| 20260505223604 | 21 | 187 | 4.8 | 11.3 | 0.00 | 0.00 | 0.00 | 55 | 1004.6 |
| 20260505222704 | 22 | 186 | 4.8 | 9.7 | 0.00 | 0.00 | 0.00 | 55 | 1003.9 |
| 20260505221804 | 22 | 190 | 3.2 | 11.3 | 0.00 | 0.00 | 0.00 | 54 | 1004.2 |
| 20260505220904 | 22 | 188 | 4.8 | 11.3 | 0.00 | 0.00 | 0.00 | 54 | 1004.6 |
| 20260505220004 | 22 | 176 | 3.2 | 11.3 | 0.00 | 0.00 | 0.00 | 53 | 1004.6 |
| 20260505215404 | 22 | 186 | 3.2 | 11.3 | 0.00 | 0.00 | 0.00 | 53 | 1004.6 |
| 20260505214504 | 23 | 183 | 4.8 | 9.7 | 0.00 | 0.00 | 0.00 | 52 | 1004.2 |
| 20260505213604 | 23 | 184 | 4.8 | 12.9 | 0.00 | 0.00 | 0.00 | 52 | 1004.2 |
| 20260505212704 | 23 | 186 | 4.8 | 12.9 | 0.00 | 0.00 | 0.00 | 51 | 1003.9 |
| 20260505211803 | 23 | 182 | 4.8 | 11.3 | 0.00 | 0.00 | 0.00 | 51 | 1003.9 |
| 20260505210903 | 24 | 182 | 4.8 | 12.9 | 0.00 | 0.00 | 0.00 | 50 | 1004.2 |
| 20260505210004 | 24 | 178 | 4.8 | 11.3 | 0.00 | 0.00 | 0.00 | 50 | 1003.9 |
| 20260505205404 | 25 | 176 | 4.8 | 11.3 | 0.00 | 0.00 | 0.00 | 50 | 1003.9 |
| 20260505204504 | 25 | 187 | 4.8 | 12.9 | 0.00 | 0.00 | 0.00 | 49 | 1003.9 |
| 20260505203604 | 25 | 188 | 4.8 | 12.9 | 0.00 | 0.00 | 0.00 | 49 | 1003.9 |
| 20260505202703 | 25 | 171 | 6.4 | 12.9 | 0.00 | 0.00 | 0.00 | 48 | 1004.2 |
| 20260505201804 | 26 | 190 | 6.4 | 14.5 | 0.00 | 0.00 | 0.00 | 47 | 1003.9 |
| 20260505200903 | 26 | 191 | 4.8 | 12.9 | 0.00 | 0.00 | 0.00 | 47 | 1004.2 |
| 20260505200004 | 26 | 178 | 6.4 | 14.5 | 0.00 | 0.00 | 0.00 | 46 | 1004.6 |
| 20260505195404 | 27 | 167 | 6.4 | 12.9 | 0.00 | 0.00 | 0.00 | 46 | 1004.2 |
| 20260505194504 | 27 | 170 | 6.4 | 14.5 | 0.00 | 0.00 | 0.00 | 45 | 1004.2 |
| 20260505193603 | 27 | 193 | 6.4 | 16.1 | 0.00 | 0.00 | 0.00 | 45 | 1004.6 |
| 20260505192704 | 28 | 191 | 6.4 | 14.5 | 0.00 | 0.00 | 0.00 | 45 | 1004.2 |
| 20260505191803 | 28 | 170 | 6.4 | 12.9 | 0.00 | 0.00 | 0.00 | 45 | 1004.2 |
| 20260505190904 | 28 | 181 | 6.4 | 12.9 | 0.00 | 0.00 | 0.00 | 46 | 1004.6 |
| 20260505190004 | 28 | 175 | 4.8 | 12.9 | 0.00 | 0.00 | 0.00 | 46 | 1004.6 |
| 20260505185404 | 28 | 174 | 6.4 | 16.1 | 0.00 | 0.00 | 0.00 | 46 | 1004.6 |
| 20260505184504 | 28 | 178 | 4.8 | 12.9 | 0.00 | 0.00 | 0.00 | 46 | 1004.6 |
| 20260505183604 | 28 | 169 | 6.4 | 14.5 | 0.00 | 0.00 | 0.00 | 47 | 1004.9 |
| 20260505182704 | 28 | 174 | 8.0 | 16.1 | 0.00 | 0.00 | 0.00 | 46 | 1004.9 |
| 20260505181804 | 28 | 171 | 4.8 | 16.1 | 0.00 | 0.00 | 0.00 | 47 | 1004.9 |
| 20260505180904 | 28 | 169 | 4.8 | 16.1 | 0.00 | 0.00 | 0.00 | 46 | 1004.9 |
| 20260505180003 | 28 | 187 | 6.4 | 16.1 | 0.00 | 0.00 | 0.00 | 46 | 1004.9 |
| 20260505175403 | 28 | 173 | 6.4 | 16.1 | 0.00 | 0.00 | 0.00 | 47 | 1004.9 |
| 20260505174504 | 28 | 166 | 6.4 | 14.5 | 0.00 | 0.00 | 0.00 | 48 | 1004.9 |
| 20260505173604 | 27 | 176 | 6.4 | 14.5 | 0.00 | 0.00 | 0.00 | 48 | 1004.9 |
| 20260505172703 | 27 | 176 | 4.8 | 12.9 | 0.00 | 0.00 | 0.00 | 48 | 1004.9 |
| 20260505171803 | 28 | 183 | 4.8 | 12.9 | 0.00 | 0.00 | 0.00 | 48 | 1004.9 |
| 20260505170903 | 28 | 188 | 4.8 | 14.5 | 0.00 | 0.00 | 0.00 | 50 | 1004.9 |
| 20260505170003 | 28 | 167 | 4.8 | 11.3 | 0.00 | 0.00 | 0.00 | 51 | 1005.6 |
| 20260505165403 | 28 | 181 | 4.8 | 11.3 | 0.00 | 0.00 | 0.00 | 52 | 1005.2 |
| 20260505164503 | 27 | 175 | 4.8 | 11.3 | 0.00 | 0.00 | 0.00 | 52 | 1005.6 |
| 20260505163603 | 27 | 174 | 4.8 | 12.9 | 0.00 | 0.00 | 0.00 | 54 | 1005.9 |